Time;durP1;ratioP1;P1;durP2;ratioP2;P2;SDS_P1;SDS_P2;PMS_P1;PMS_P2;Temp;Humidity;BMP_temperature;BMP_pressure;BME280_temperature;BME280_humidity;BME280_pressure;Samples;Min_cycle;Max_cycle;Signal;HPM_P1;HPM_P2
2022/07/17 00:00:13;;;;;;;1.98;1.13;;;;;;;15.98;66.79;102818.13;5056908;28;20120;-78
2022/07/17 00:02:39;;;;;;;2.42;1.40;;;;;;;15.96;66.69;102811.16;5070824;28;20068;-78
2022/07/17 00:05:05;;;;;;;2.10;1.30;;;;;;;15.94;67.12;102808.56;5041733;28;20029;-78
2022/07/17 00:07:30;;;;;;;2.88;1.30;;;;;;;15.92;67.23;102807.75;5057060;28;20096;-78
2022/07/17 00:09:56;;;;;;;1.73;1.40;;;;;;;15.90;67.21;102810.44;5039530;28;20100;-78
2022/07/17 00:12:21;;;;;;;2.15;1.55;;;;;;;15.89;67.06;102811.34;5046603;28;20337;-78
2022/07/17 00:14:46;;;;;;;3.25;1.42;;;;;;;15.87;67.22;102807.88;5062484;28;20251;-78
2022/07/17 00:17:12;;;;;;;1.63;1.30;;;;;;;15.86;67.32;102810.56;5049825;28;20108;-78
2022/07/17 00:19:37;;;;;;;1.55;1.20;;;;;;;15.85;67.16;102814.16;5056075;28;20215;-78
2022/07/17 00:22:03;;;;;;;1.42;1.00;;;;;;;15.84;67.34;102820.31;5042243;28;20040;-77
2022/07/17 00:24:29;;;;;;;1.05;1.00;;;;;;;15.82;67.71;102825.66;5056171;28;20041;-78
2022/07/17 00:26:54;;;;;;;1.58;1.20;;;;;;;15.81;67.35;102821.31;5060190;28;20036;-78
2022/07/17 00:29:20;;;;;;;2.70;1.50;;;;;;;15.79;67.79;102817.84;5075855;28;20227;-78
2022/07/17 00:31:45;;;;;;;5.60;1.38;;;;;;;15.79;67.60;102816.97;5065150;28;20036;-78
2022/07/17 00:34:11;;;;;;;1.65;1.17;;;;;;;15.78;67.55;102816.09;5056475;28;20075;-77
2022/07/17 00:36:37;;;;;;;1.65;1.40;;;;;;;15.75;67.86;102805.63;5052298;28;20032;-78
2022/07/17 00:39:03;;;;;;;2.30;1.40;;;;;;;15.73;68.04;102799.50;5055894;28;20210;-78
2022/07/17 00:41:29;;;;;;;1.90;1.20;;;;;;;15.72;68.00;102796.00;5072413;28;20102;-78
2022/07/17 00:43:54;;;;;;;5.63;1.30;;;;;;;15.71;68.04;102798.69;5042874;28;20021;-77
2022/07/17 00:46:20;;;;;;;2.83;1.13;;;;;;;15.69;67.64;102804.00;5055724;28;20367;-78
2022/07/17 00:48:45;;;;;;;2.55;1.20;;;;;;;15.67;67.81;102800.56;5046867;28;20037;-78
2022/07/17 00:51:11;;;;;;;3.58;1.40;;;;;;;15.66;67.84;102787.38;5040702;28;20043;-78
2022/07/17 00:53:37;;;;;;;1.60;1.33;;;;;;;15.65;67.97;102798.88;5047773;28;20275;-78
2022/07/17 00:56:04;;;;;;;2.05;1.30;;;;;;;15.63;67.69;102784.88;5062140;28;20200;-78
2022/07/17 00:58:33;;;;;;;2.28;1.10;;;;;;;15.62;67.99;102781.34;5061338;28;20037;-78
2022/07/17 01:04:20;;;;;;;1.80;1.10;;;;;;;15.59;67.90;102759.44;5041340;28;20074;-78
2022/07/17 01:06:45;;;;;;;3.45;1.55;;;;;;;15.57;68.20;102756.84;5057719;28;20375;-78
2022/07/17 01:09:11;;;;;;;1.80;1.20;;;;;;;15.57;68.61;102759.47;5053741;28;20079;-77
2022/07/17 01:11:36;;;;;;;1.73;1.45;;;;;;;15.55;68.28;102756.91;5055285;28;20104;-77
2022/07/17 01:14:02;;;;;;;1.60;1.30;;;;;;;15.54;68.28;102760.47;5038365;28;20283;-78
2022/07/17 01:16:28;;;;;;;2.72;1.40;;;;;;;15.54;68.66;102771.03;5050915;28;20041;-78
2022/07/17 01:18:53;;;;;;;3.17;1.48;;;;;;;15.52;68.45;102775.50;5039281;28;20057;-77
2022/07/17 01:21:19;;;;;;;1.65;1.20;;;;;;;15.52;68.33;102774.63;5037884;28;20041;-78
2022/07/17 01:23:44;;;;;;;3.25;1.40;;;;;;;15.50;68.60;102774.69;5060988;28;20044;-78
2022/07/17 01:26:10;;;;;;;3.67;1.30;;;;;;;15.48;68.55;102776.50;5074438;28;20036;-77
2022/07/17 01:28:35;;;;;;;2.15;1.35;;;;;;;15.47;68.59;102779.19;5058756;28;20453;-78
2022/07/17 01:31:03;;;;;;;2.38;1.30;;;;;;;15.45;68.54;102781.88;5055775;28;20079;-78
2022/07/17 01:33:28;;;;;;;2.90;1.40;;;;;;;15.44;68.67;102781.91;5061042;28;20049;-77
2022/07/17 01:35:54;;;;;;;3.90;1.30;;;;;;;15.43;68.81;102782.84;5068821;28;20247;-78
2022/07/17 01:38:19;;;;;;;2.28;1.20;;;;;;;15.40;68.75;102773.22;5045487;28;20111;-78
2022/07/17 01:40:44;;;;;;;1.67;1.40;;;;;;;15.39;68.80;102771.50;5048932;28;20047;-77
2022/07/17 01:43:10;;;;;;;3.58;1.30;;;;;;;15.37;68.70;102768.00;5061487;28;20095;-78
2022/07/17 01:45:35;;;;;;;1.40;1.30;;;;;;;15.35;68.93;102765.44;5066128;28;20032;-78
2022/07/17 01:48:01;;;;;;;2.15;1.58;;;;;;;15.35;68.74;102767.19;5040799;28;20209;-78
2022/07/17 01:50:26;;;;;;;5.80;1.80;;;;;;;15.32;68.94;102765.53;5059875;28;20048;-78
2022/07/17 01:52:52;;;;;;;3.35;1.40;;;;;;;15.31;68.96;102762.94;5059737;28;20117;-78
2022/07/17 01:55:17;;;;;;;3.17;1.50;;;;;;;15.30;69.17;102763.88;5069463;28;20415;-78
2022/07/17 01:57:43;;;;;;;1.88;1.15;;;;;;;15.29;68.94;102768.25;5040750;28;20069;-77
2022/07/17 02:00:12;;;;;;;2.67;1.20;;;;;;;15.27;68.98;102766.59;5049726;28;20362;-78
2022/07/17 02:02:37;;;;;;;;;;;;;;;15.26;69.05;102764.84;5057074;28;20021;-78
2022/07/17 02:05:03;;;;;;;1.92;1.15;;;;;;;15.24;69.18;102762.25;5068511;28;19920;-77
2022/07/17 02:07:29;;;;;;;3.42;1.77;;;;;;;15.24;69.14;102767.53;5070709;28;20113;-75
2022/07/17 02:09:54;;;;;;;2.15;1.55;;;;;;;15.22;69.02;102765.84;5054054;28;20074;-75
2022/07/17 02:12:20;;;;;;;2.47;1.52;;;;;;;15.20;69.33;102770.31;5081056;28;20039;-75
2022/07/17 02:14:45;;;;;;;2.58;1.48;;;;;;;15.20;69.45;102765.03;5080006;28;20052;-75
2022/07/17 02:17:10;;;;;;;1.48;1.30;;;;;;;15.19;69.63;102758.91;5042885;28;20109;-75
2022/07/17 02:19:37;;;;;;;2.08;1.45;;;;;;;15.17;69.36;102760.69;5061311;28;20360;-75
2022/07/17 02:22:02;;;;;;;3.55;1.48;;;;;;;15.15;69.24;102763.41;5061616;28;20049;-75
2022/07/17 02:24:28;;;;;;;1.70;1.50;;;;;;;15.15;69.57;102760.75;5065972;28;20060;-75
2022/07/17 02:26:53;;;;;;;1.95;1.50;;;;;;;15.14;69.62;102766.94;5043838;28;20038;-74
2022/07/17 02:29:19;;;;;;;1.85;1.27;;;;;;;15.13;69.33;102764.34;5078192;28;20032;-75
2022/07/17 02:31:44;;;;;;;3.70;1.38;;;;;;;15.12;69.85;102767.91;5063168;28;20064;-74
2022/07/17 02:34:09;;;;;;;1.90;1.60;;;;;;;15.12;69.70;102775.81;5043974;28;20040;-77
2022/07/17 02:36:35;;;;;;;2.00;1.40;;;;;;;15.09;69.60;102779.41;5061646;28;20045;-78
2022/07/17 02:39:01;;;;;;;1.95;1.48;;;;;;;15.08;69.89;102782.06;5057982;28;20267;-77
2022/07/17 02:41:27;;;;;;;3.72;1.60;;;;;;;15.06;70.04;102773.34;5076026;28;20028;-77
2022/07/17 02:43:52;;;;;;;2.58;1.60;;;;;;;15.05;69.77;102787.47;5060556;28;20083;-78
2022/07/17 02:46:17;;;;;;;2.00;1.10;;;;;;;15.03;70.04;102794.56;5059729;28;20094;-78
2022/07/17 02:48:43;;;;;;;1.90;1.60;;;;;;;15.01;69.80;102802.50;5057483;28;20052;-78
2022/07/17 02:51:09;;;;;;;3.83;1.40;;;;;;;15.00;70.05;102797.28;5056513;28;20323;-77
2022/07/17 02:53:35;;;;;;;2.88;1.67;;;;;;;14.97;70.20;102796.47;5042651;28;20069;-77
2022/07/17 02:56:00;;;;;;;3.30;1.33;;;;;;;14.97;69.93;102792.94;5066571;28;20029;-78
2022/07/17 02:58:26;;;;;;;2.25;1.20;;;;;;;14.96;70.02;102791.22;5035055;28;20033;-77
2022/07/17 03:00:52;;;;;;;2.33;1.80;;;;;;;14.94;69.88;102800.94;5057232;28;20251;-77
2022/07/17 03:03:19;;;;;;;2.45;1.50;;;;;;;14.93;70.11;102802.69;5043623;28;20037;-77
2022/07/17 03:05:45;;;;;;;4.05;1.40;;;;;;;14.92;70.04;102797.50;5055507;28;20109;-78
2022/07/17 03:08:10;;;;;;;1.80;1.33;;;;;;;14.91;70.26;102790.47;5039671;28;20235;-77
2022/07/17 03:10:36;;;;;;;1.65;1.50;;;;;;;14.88;70.14;102791.44;5059777;28;20118;-77
2022/07/17 03:13:02;;;;;;;3.13;1.50;;;;;;;14.87;69.88;102783.56;5007665;28;20482;-78
2022/07/17 03:15:27;;;;;;;4.45;1.40;;;;;;;14.86;70.36;102784.47;5048607;28;20040;-78
2022/07/17 03:17:52;;;;;;;1.77;1.30;;;;;;;14.84;70.13;102784.50;5076788;28;20055;-77
2022/07/17 03:20:18;;;;;;;2.20;1.27;;;;;;;14.82;70.04;102794.22;5077814;28;20375;-77
2022/07/17 03:22:43;;;;;;;3.03;1.70;;;;;;;14.82;69.99;102801.28;5060368;28;20066;-78
2022/07/17 03:25:09;;;;;;;1.80;1.35;;;;;;;14.81;70.31;102800.44;5059056;28;20058;-78
2022/07/17 03:27:35;;;;;;;4.22;1.60;;;;;;;14.80;70.41;102793.41;5059738;28;20037;-78
2022/07/17 03:30:00;;;;;;;3.97;1.70;;;;;;;14.79;70.46;102799.59;5054143;28;20344;-78
2022/07/17 03:32:25;;;;;;;2.83;1.50;;;;;;;14.77;70.33;102794.38;5058544;28;20044;-77
2022/07/17 03:34:51;;;;;;;1.58;1.48;;;;;;;14.77;70.50;102793.47;5039340;28;20036;-77
2022/07/17 03:37:16;;;;;;;2.80;1.48;;;;;;;14.75;70.24;102796.19;5059781;28;20037;-78
2022/07/17 03:39:42;;;;;;;1.23;1.13;;;;;;;14.75;70.16;102795.31;5062721;28;20205;-78
2022/07/17 03:42:07;;;;;;;2.83;1.38;;;;;;;14.73;70.43;102794.47;5056086;28;20174;-78
2022/07/17 03:44:33;;;;;;;2.47;1.58;;;;;;;14.72;70.33;102793.63;5057206;28;20056;-78
2022/07/17 03:46:58;;;;;;;1.98;1.40;;;;;;;14.72;70.29;102784.84;5056777;28;20024;-77
2022/07/17 03:49:24;;;;;;;1.70;1.60;;;;;;;14.72;70.68;102790.13;5056071;28;20037;-78
2022/07/17 03:51:50;;;;;;;2.40;1.42;;;;;;;14.70;70.68;102786.69;5067801;28;20044;-78
2022/07/17 03:54:15;;;;;;;2.17;1.40;;;;;;;14.69;70.65;102777.03;5061721;28;20123;-78
2022/07/17 03:56:40;;;;;;;2.13;1.23;;;;;;;14.68;70.67;102780.53;5061186;28;20033;-78
2022/07/17 03:59:06;;;;;;;1.60;1.30;;;;;;;14.67;70.73;102786.75;5047263;28;20359;-77
2022/07/17 04:01:31;;;;;;;1.85;1.10;;;;;;;14.67;70.48;102792.03;5037697;28;20033;-78
2022/07/17 04:03:57;;;;;;;1.27;1.20;;;;;;;14.65;70.81;102791.19;5055277;28;20036;-78
2022/07/17 04:06:22;;;;;;;2.40;1.42;;;;;;;14.64;70.93;102792.94;5049222;28;20285;-78
2022/07/17 04:08:47;;;;;;;1.63;1.27;;;;;;;14.63;70.74;102798.28;5058727;28;20272;-78
2022/07/17 04:11:13;;;;;;;1.55;1.30;;;;;;;14.62;70.90;102800.03;5037298;28;20102;-77
2022/07/17 04:13:38;;;;;;;1.75;1.30;;;;;;;14.61;70.77;102808.88;5055772;28;20370;-77
2022/07/17 04:16:04;;;;;;;1.88;1.30;;;;;;;14.60;71.08;102817.69;5074993;28;20291;-78
2022/07/17 04:18:32;;;;;;;2.45;1.85;;;;;;;14.58;70.98;102815.06;5046955;28;20061;-78
2022/07/17 04:21:02;;;;;;;2.22;1.40;;;;;;;14.59;70.71;102813.31;5041329;28;20033;-78
2022/07/17 04:23:28;;;;;;;2.60;1.30;;;;;;;14.58;71.08;102799.25;5036635;28;20220;-78
2022/07/17 04:25:53;;;;;;;1.73;1.20;;;;;;;14.57;71.05;102800.19;5062507;28;20131;-78
2022/07/17 04:28:19;;;;;;;1.55;1.30;;;;;;;14.57;70.74;102805.44;5054743;28;20124;-78
2022/07/17 04:30:45;;;;;;;2.97;1.25;;;;;;;14.56;70.98;102816.84;5064409;28;20389;-78
2022/07/17 04:33:11;;;;;;;1.10;1.00;;;;;;;14.58;70.90;102822.13;5054491;28;20045;-77
2022/07/17 04:35:37;;;;;;;2.08;1.17;;;;;;;14.56;70.80;102814.22;5054479;28;20061;-78
2022/07/17 04:38:04;;;;;;;1.50;1.38;;;;;;;14.56;71.20;102805.44;5060076;28;20091;-77
2022/07/17 04:40:29;;;;;;;3.90;1.27;;;;;;;14.55;70.85;102799.31;5059883;28;20044;-77
2022/07/17 04:42:55;;;;;;;2.17;1.58;;;;;;;14.56;70.83;102789.63;5052379;28;20313;-78
2022/07/17 04:45:20;;;;;;;1.58;1.30;;;;;;;14.56;70.89;102800.19;5059016;28;20067;-78
2022/07/17 04:47:45;;;;;;;2.28;1.40;;;;;;;14.55;71.30;102798.44;5060276;28;20043;-78
2022/07/17 04:50:11;;;;;;;3.65;1.50;;;;;;;14.56;71.28;102808.09;5055544;28;20336;-77
2022/07/17 04:52:36;;;;;;;1.92;1.20;;;;;;;14.56;71.20;102801.03;5037939;28;20049;-78
2022/07/17 04:55:03;;;;;;;2.15;1.15;;;;;;;14.56;71.06;102798.41;5065551;28;20357;-78
2022/07/17 04:57:28;;;;;;;3.78;1.75;;;;;;;14.56;70.89;102794.91;5047030;28;20036;-77
2022/07/17 04:59:53;;;;;;;3.42;1.40;;;;;;;14.57;71.37;102793.97;5047886;28;20044;-77
2022/07/17 05:02:19;;;;;;;3.40;1.20;;;;;;;14.57;71.25;102796.63;5054608;28;20029;-77
2022/07/17 05:04:44;;;;;;;1.77;1.30;;;;;;;14.57;71.49;102800.19;5056867;28;20407;-78
2022/07/17 05:07:09;;;;;;;2.35;1.20;;;;;;;14.58;71.57;102795.75;5059802;28;20041;-78
2022/07/17 05:09:35;;;;;;;1.52;1.15;;;;;;;14.58;71.06;102788.72;5063330;28;20147;-78
2022/07/17 05:12:00;;;;;;;1.02;1.00;;;;;;;14.58;71.12;102786.06;5048172;28;20354;-78
2022/07/17 05:14:26;;;;;;;2.33;1.30;;;;;;;14.59;71.24;102794.88;5040651;28;20037;-77
2022/07/17 05:16:51;;;;;;;1.63;0.93;;;;;;;14.59;71.24;102798.38;5058410;28;20033;-77
2022/07/17 05:19:17;;;;;;;3.20;1.10;;;;;;;14.61;71.50;102794.81;5043516;28;20304;-77
2022/07/17 05:21:42;;;;;;;1.75;1.20;;;;;;;14.59;70.95;102795.72;5039752;28;20337;-78
2022/07/17 05:24:07;;;;;;;2.42;0.90;;;;;;;14.62;71.38;102802.69;5063986;28;20044;-77
2022/07/17 05:26:33;;;;;;;2.75;1.00;;;;;;;14.63;71.44;102803.56;5046155;28;20037;-78
2022/07/17 05:28:58;;;;;;;1.20;0.85;;;;;;;14.62;71.32;102799.19;5045593;28;20037;-78
2022/07/17 05:31:23;;;;;;;2.65;0.93;;;;;;;14.62;71.39;102805.31;5058339;28;20044;-78
2022/07/17 05:33:49;;;;;;;2.47;1.60;;;;;;;14.63;71.63;102808.84;5051787;28;20041;-78
2022/07/17 05:36:14;;;;;;;1.77;1.00;;;;;;;14.64;71.72;102808.78;5039277;28;20321;-78
2022/07/17 05:38:40;;;;;;;1.10;1.00;;;;;;;14.65;71.67;102807.03;5045460;28;20047;-77
2022/07/17 05:41:05;;;;;;;1.10;1.00;;;;;;;14.65;71.49;102807.03;5046334;28;20247;-78
2022/07/17 05:43:31;;;;;;;0.82;0.82;;;;;;;14.67;71.90;102802.56;5056801;28;20037;-77
2022/07/17 05:45:57;;;;;;;1.30;0.90;;;;;;;14.66;71.76;102806.09;5051830;28;20041;-77
2022/07/17 05:48:24;;;;;;;2.28;1.20;;;;;;;14.67;71.86;102802.56;5034934;28;20048;-78
2022/07/17 05:50:49;;;;;;;1.30;0.95;;;;;;;14.68;72.07;102812.19;5029206;28;20044;-77
2022/07/17 05:53:15;;;;;;;1.67;0.80;;;;;;;14.68;72.17;102815.72;5049373;28;20037;-78
2022/07/17 05:55:41;;;;;;;0.80;0.80;;;;;;;14.69;71.98;102811.31;5057637;28;20267;-78
2022/07/17 05:58:06;;;;;;;2.63;0.88;;;;;;;14.69;72.33;102814.78;5066031;28;20044;-78
2022/07/17 06:00:32;;;;;;;2.92;0.93;;;;;;;14.70;72.10;102820.97;5040838;28;20348;-77
2022/07/17 06:02:58;;;;;;;2.50;1.15;;;;;;;14.70;72.13;102819.19;5044605;28;20029;-77
2022/07/17 06:05:25;;;;;;;1.85;1.15;;;;;;;14.71;72.31;102815.63;5053625;28;20064;-78
2022/07/17 06:07:51;;;;;;;1.67;1.10;;;;;;;14.73;72.19;102823.50;5022989;28;20044;-77
2022/07/17 06:10:16;;;;;;;1.20;0.75;;;;;;;14.73;72.12;102826.97;5036340;28;20243;-78
2022/07/17 06:12:42;;;;;;;1.42;0.80;;;;;;;14.75;72.54;102829.59;5024690;28;20337;-77
2022/07/17 06:15:07;;;;;;;0.90;0.90;;;;;;;14.75;72.56;102833.13;5054948;28;20044;-77
2022/07/17 06:17:33;;;;;;;1.05;0.80;;;;;;;14.76;72.63;102829.56;5039417;28;20039;-77
2022/07/17 06:19:58;;;;;;;1.80;1.05;;;;;;;14.77;72.41;102833.03;5055713;28;20072;-78
2022/07/17 06:22:23;;;;;;;1.77;1.00;;;;;;;14.78;72.45;102826.88;5067228;28;20037;-77
2022/07/17 06:24:49;;;;;;;0.90;0.80;;;;;;;14.80;72.42;102834.75;5046916;28;20041;-78
2022/07/17 06:27:14;;;;;;;2.95;1.00;;;;;;;14.80;72.50;102838.25;5053607;28;20043;-77
2022/07/17 06:29:40;;;;;;;2.60;1.00;;;;;;;14.80;72.99;102850.59;5046054;28;20049;-77
2022/07/17 06:32:06;;;;;;;1.10;0.77;;;;;;;14.82;73.07;102846.13;5051899;28;20308;-77
2022/07/17 06:34:31;;;;;;;2.28;1.15;;;;;;;14.83;73.00;102839.97;5052556;28;20041;-77
2022/07/17 06:36:57;;;;;;;3.75;1.38;;;;;;;14.82;73.27;102841.72;5031042;28;20205;-77
2022/07/17 06:39:22;;;;;;;1.80;0.95;;;;;;;14.82;73.59;102854.91;5035080;28;20122;-78
2022/07/17 06:41:47;;;;;;;2.00;0.73;;;;;;;14.85;73.14;102860.09;5052259;28;20086;-77
2022/07/17 06:44:13;;;;;;;3.05;1.00;;;;;;;14.84;72.93;102865.41;5037242;28;20039;-77
2022/07/17 06:46:38;;;;;;;3.22;1.50;;;;;;;14.84;73.21;102865.41;5057797;28;20065;-77
2022/07/17 06:49:03;;;;;;;1.63;0.90;;;;;;;14.86;72.83;102861.84;5047732;28;20051;-77
2022/07/17 06:51:29;;;;;;;1.80;0.75;;;;;;;14.89;72.88;102858.25;5055831;28;20104;-77
2022/07/17 06:53:54;;;;;;;4.50;1.25;;;;;;;14.91;73.15;102859.91;5047407;28;20037;-77
2022/07/17 06:56:20;;;;;;;2.42;0.82;;;;;;;14.94;72.54;102859.00;5050885;28;20335;-77
2022/07/17 06:58:45;;;;;;;2.58;1.13;;;;;;;14.94;72.63;102865.13;5056195;28;20040;-78
2022/07/17 07:01:10;;;;;;;5.03;1.35;;;;;;;14.97;72.70;102856.25;5039587;28;20026;-77
2022/07/17 07:03:36;;;;;;;1.77;0.85;;;;;;;15.00;72.36;102858.81;5038510;28;20101;-78
2022/07/17 07:06:01;;;;;;;6.43;1.02;;;;;;;15.00;72.84;102865.88;5058873;28;20064;-78
2022/07/17 07:08:27;;;;;;;4.05;0.95;;;;;;;15.03;73.00;102869.28;5025147;28;20040;-78
2022/07/17 07:10:52;;;;;;;3.08;0.88;;;;;;;15.06;72.84;102874.50;5054468;28;20060;-79
2022/07/17 07:13:18;;;;;;;4.18;0.98;;;;;;;15.09;72.78;102862.97;5049992;28;20104;-78
2022/07/17 07:15:43;;;;;;;4.63;0.85;;;;;;;15.10;72.74;102865.59;5048366;28;20356;-78
2022/07/17 07:18:08;;;;;;;2.90;1.10;;;;;;;15.13;72.71;102867.25;5028406;28;20379;-78
2022/07/17 07:20:34;;;;;;;8.73;1.35;;;;;;;15.17;71.99;102868.91;5050727;28;20040;-78
2022/07/17 07:22:59;;;;;;;2.85;1.13;;;;;;;15.20;71.92;102871.47;5054441;28;20028;-79
2022/07/17 07:25:25;;;;;;;4.43;1.33;;;;;;;15.27;71.48;102866.88;5033322;28;20107;-78
2022/07/17 07:27:50;;;;;;;6.32;1.08;;;;;;;15.30;71.96;102862.38;5028817;28;20044;-78
2022/07/17 07:30:16;;;;;;;3.35;0.90;;;;;;;15.34;71.52;102858.75;5063620;28;20075;-79
2022/07/17 07:32:41;;;;;;;2.33;0.80;;;;;;;15.38;71.60;102854.25;5029244;28;20345;-79
2022/07/17 07:35:07;;;;;;;1.33;0.75;;;;;;;15.42;71.34;102862.94;5046068;28;20041;-78
2022/07/17 07:37:33;;;;;;;4.45;0.90;;;;;;;15.44;71.50;102856.69;5050846;28;20029;-79
2022/07/17 07:39:59;;;;;;;3.03;0.85;;;;;;;15.46;71.88;102861.94;5043327;28;20052;-79
2022/07/17 07:42:25;;;;;;;3.80;0.90;;;;;;;15.50;71.05;102858.31;5054514;28;20044;-78
2022/07/17 07:44:50;;;;;;;4.07;0.82;;;;;;;15.53;71.11;102851.16;5051727;28;20033;-78
2022/07/17 07:47:15;;;;;;;2.30;0.70;;;;;;;15.58;70.81;102855.44;5041695;28;20044;-78
2022/07/17 07:49:41;;;;;;;3.97;0.85;;;;;;;15.62;71.22;102852.66;5031817;28;20389;-78
2022/07/17 07:52:06;;;;;;;4.13;1.10;;;;;;;15.67;70.73;102856.03;5048815;28;20059;-78
2022/07/17 07:54:32;;;;;;;4.63;1.27;;;;;;;15.71;70.56;102857.66;5031437;28;20040;-78
2022/07/17 07:56:57;;;;;;;1.30;0.80;;;;;;;15.76;70.44;102851.41;5052083;28;20035;-78
2022/07/17 07:59:23;;;;;;;3.53;0.85;;;;;;;15.78;70.04;102841.66;5033879;28;20029;-78
2022/07/17 08:01:48;;;;;;;3.55;1.00;;;;;;;15.81;69.89;102852.13;5050447;28;20111;-78
2022/07/17 08:04:15;;;;;;;2.30;1.00;;;;;;;15.82;70.11;102854.72;5048078;28;20329;-78
2022/07/17 08:06:41;;;;;;;7.50;1.05;;;;;;;15.86;70.02;102859.03;5044742;28;20079;-79
2022/07/17 08:09:06;;;;;;;4.80;1.23;;;;;;;15.90;68.64;102855.34;5034384;28;20041;-79
2022/07/17 08:11:32;;;;;;;5.47;1.55;;;;;;;15.93;67.68;102852.63;5035565;28;20041;-78
2022/07/17 08:13:57;;;;;;;3.15;1.00;;;;;;;15.98;67.58;102851.63;5047317;28;20037;-79
2022/07/17 08:16:23;;;;;;;6.72;1.35;;;;;;;16.03;67.86;102842.63;5038014;28;20036;-79
2022/07/17 08:18:48;;;;;;;2.53;1.10;;;;;;;16.07;68.39;102840.75;5050482;28;20052;-79
2022/07/17 08:21:14;;;;;;;1.88;0.85;;;;;;;16.11;68.54;102842.38;5029102;28;20221;-79
2022/07/17 08:23:39;;;;;;;3.65;1.10;;;;;;;16.15;68.64;102843.13;5046618;28;20044;-79
2022/07/17 08:26:04;;;;;;;5.70;1.33;;;;;;;16.22;68.30;102844.66;5029809;28;20356;-78
2022/07/17 08:28:30;;;;;;;1.83;1.17;;;;;;;16.26;67.57;102839.25;5057899;28;20047;-79
2022/07/17 08:30:55;;;;;;;1.33;0.98;;;;;;;16.30;68.29;102843.50;5048496;28;20048;-79
2022/07/17 08:33:21;;;;;;;3.05;1.00;;;;;;;16.36;67.60;102845.09;5034132;28;20263;-78
2022/07/17 08:35:46;;;;;;;1.80;0.90;;;;;;;16.43;67.72;102843.97;5049022;28;20055;-78
2022/07/17 08:38:12;;;;;;;7.47;1.25;;;;;;;16.47;67.63;102842.09;5028825;28;20060;-79
2022/07/17 08:40:38;;;;;;;1.27;0.80;;;;;;;16.49;67.55;102835.81;5043230;28;20311;-78
2022/07/17 08:43:07;;;;;;;3.05;1.00;;;;;;;16.51;67.55;102841.91;5055051;28;20126;-78
2022/07/17 08:45:33;;;;;;;2.25;0.98;;;;;;;16.59;66.69;102838.13;5035530;28;20037;-79
2022/07/17 08:48:00;;;;;;;2.47;1.02;;;;;;;16.63;65.76;102837.13;5054600;28;20047;-78
2022/07/17 08:50:31;;;;;;;6.65;0.88;;;;;;;16.67;65.80;102833.47;5050623;28;20029;-79
2022/07/17 08:52:57;;;;;;;3.85;1.10;;;;;;;16.74;64.79;102839.41;5053815;28;20040;-79
2022/07/17 08:55:23;;;;;;;6.93;1.20;;;;;;;16.78;64.66;102833.09;5054836;28;20035;-79
2022/07/17 08:57:48;;;;;;;3.05;0.90;;;;;;;16.80;64.31;102831.25;5020893;28;20344;-79
2022/07/17 09:00:18;;;;;;;2.75;0.90;;;;;;;16.85;65.59;102830.19;5052022;28;20097;-79
2022/07/17 09:03:00;;;;;;;0.95;0.85;;;;;;;16.91;65.53;102830.91;5036025;28;20217;-79
2022/07/17 09:05:36;;;;;;;2.05;1.02;;;;;;;16.99;64.29;102831.47;5054446;28;20029;-79
2022/07/17 09:08:03;;;;;;;3.30;0.90;;;;;;;17.03;64.30;102830.47;5056529;28;20079;-79
2022/07/17 09:10:32;;;;;;;1.85;0.85;;;;;;;17.07;64.60;102822.34;5055174;28;20071;-79
2022/07/17 09:12:58;;;;;;;1.08;0.98;;;;;;;17.12;64.38;102829.25;5054062;28;20060;-79
2022/07/17 09:15:24;;;;;;;3.60;1.02;;;;;;;17.16;63.81;102828.22;5054455;28;20068;-79
2022/07/17 09:17:54;;;;;;;1.77;1.10;;;;;;;17.22;62.85;102822.69;5059245;28;20053;-79
2022/07/17 09:20:21;;;;;;;1.63;0.90;;;;;;;17.27;62.94;102832.19;5052364;28;20091;-79
2022/07/17 09:23:04;;;;;;;1.33;1.08;;;;;;;17.38;62.21;102828.28;5054963;28;20037;-79
2022/07/17 09:25:44;;;;;;;2.25;1.00;;;;;;;17.43;63.64;102835.13;5052025;28;20147;-79
2022/07/17 09:28:12;;;;;;;0.90;0.90;;;;;;;17.46;63.80;102832.38;5039205;28;20084;-79
2022/07/17 09:30:42;;;;;;;2.13;1.20;;;;;;;17.50;63.23;102824.28;5054568;28;20255;-79
2022/07/17 09:33:17;;;;;;;1.80;1.00;;;;;;;17.58;62.07;102823.09;5033944;28;20295;-79
2022/07/17 09:35:51;;;;;;;1.98;1.33;;;;;;;17.64;63.09;102819.31;5046012;28;20263;-79
2022/07/17 09:38:30;;;;;;;2.60;1.27;;;;;;;17.74;60.97;102828.66;5059344;28;20406;-79
2022/07/17 09:41:11;;;;;;;2.03;1.10;;;;;;;17.79;60.34;102829.34;5031316;28;20234;-79
2022/07/17 09:43:52;;;;;;;3.08;1.00;;;;;;;17.85;60.02;102830.91;5026104;28;20078;-79
2022/07/17 09:46:27;;;;;;;0.95;0.85;;;;;;;17.93;60.18;102828.81;5055026;28;20033;-79
2022/07/17 09:49:04;;;;;;;2.97;1.08;;;;;;;18.01;60.50;102836.47;5060687;28;20090;-79
2022/07/17 09:51:37;;;;;;;1.50;1.08;;;;;;;18.02;60.63;102828.44;5023267;28;20286;-78
2022/07/17 09:54:04;;;;;;;1.08;0.88;;;;;;;18.10;60.42;102825.50;5056310;28;20108;-79
2022/07/17 09:56:32;;;;;;;1.15;1.00;;;;;;;18.15;60.07;102826.13;5036669;28;20043;-78
2022/07/17 09:59:04;;;;;;;3.47;1.20;;;;;;;18.17;59.88;102826.09;5054399;28;20051;-79
2022/07/17 10:01:30;;;;;;;1.20;1.00;;;;;;;18.21;60.04;102817.09;5046818;28;20374;-79
2022/07/17 10:03:55;;;;;;;1.27;0.85;;;;;;;18.27;59.53;102821.28;5057441;28;20059;-79
2022/07/17 10:06:22;;;;;;;2.15;1.15;;;;;;;18.31;59.27;102825.53;5048118;28;20103;-79
2022/07/17 10:08:48;;;;;;;2.45;1.00;;;;;;;18.35;58.78;102833.25;5056263;28;20027;-79
2022/07/17 10:11:19;;;;;;;1.30;0.93;;;;;;;18.39;59.01;102831.34;5055665;28;20045;-79
2022/07/17 10:13:46;;;;;;;2.63;1.00;;;;;;;18.46;59.81;102824.00;5058013;28;20405;-79
2022/07/17 10:16:13;;;;;;;2.85;1.13;;;;;;;18.50;59.03;102831.78;5030881;28;20038;-79
2022/07/17 10:18:44;;;;;;;4.10;0.90;;;;;;;18.56;59.57;102836.81;5049840;28;20155;-79
2022/07/17 10:21:09;;;;;;;5.47;1.17;;;;;;;18.61;59.44;102836.63;5052829;28;20040;-79
2022/07/17 10:23:35;;;;;;;4.23;1.00;;;;;;;18.68;58.40;102839.88;5055495;28;20032;-79
2022/07/17 10:26:01;;;;;;;1.30;1.10;;;;;;;18.72;58.84;102842.34;5030893;28;20287;-79
2022/07/17 10:28:39;;;;;;;2.38;0.90;;;;;;;18.72;58.05;102836.13;5040758;28;20100;-79
2022/07/17 10:31:04;;;;;;;3.40;1.05;;;;;;;18.72;59.21;102833.47;5054759;28;20041;-79
2022/07/17 10:33:29;;;;;;;3.65;1.10;;;;;;;18.76;58.88;102837.75;5050407;28;20044;-79
2022/07/17 10:35:59;;;;;;;7.97;1.00;;;;;;;18.80;59.86;102842.00;5030590;28;20334;-79
2022/07/17 10:38:27;;;;;;;4.13;1.10;;;;;;;18.83;58.77;102843.66;5058130;28;20298;-79
2022/07/17 10:41:02;;;;;;;1.13;1.00;;;;;;;18.87;60.19;102850.59;5053401;28;20037;-79
2022/07/17 10:43:41;;;;;;;2.50;1.02;;;;;;;18.92;59.51;102845.94;5046361;28;20052;-79
2022/07/17 10:46:07;;;;;;;2.60;0.88;;;;;;;18.95;55.84;102845.78;5053137;28;20037;-79
2022/07/17 10:48:32;;;;;;;1.27;0.77;;;;;;;19.03;56.69;102846.31;5048106;28;20058;-79
2022/07/17 10:50:58;;;;;;;3.80;0.85;;;;;;;19.09;56.86;102848.69;5041788;28;20108;-79
2022/07/17 10:53:31;;;;;;;2.75;1.00;;;;;;;19.13;56.72;102834.34;5035166;28;20045;-79
2022/07/17 10:56:03;;;;;;;1.23;1.10;;;;;;;19.18;57.05;102832.34;5034281;28;20228;-79
2022/07/17 10:58:42;;;;;;;5.63;3.17;;;;;;;19.23;59.67;102840.13;5056719;28;20029;-79
2022/07/17 11:01:12;;;;;;;1.75;1.10;;;;;;;19.29;58.11;102845.13;5055454;28;20056;-79
2022/07/17 11:03:45;;;;;;;2.30;1.23;;;;;;;19.34;56.93;102835.16;5057865;28;20056;-79
2022/07/17 11:06:24;;;;;;;4.00;1.17;;;;;;;19.43;55.68;102851.59;5049113;28;20033;-79
2022/07/17 11:08:58;;;;;;;0.98;0.85;;;;;;;19.46;54.50;102840.84;5053529;28;20348;-79
2022/07/17 11:11:37;;;;;;;3.45;1.30;;;;;;;19.44;54.46;102842.69;5035649;28;20124;-79
2022/07/17 11:14:20;;;;;;;2.83;1.20;;;;;;;19.48;54.95;102841.63;5048918;28;20033;-79
2022/07/17 11:16:51;;;;;;;1.20;1.00;;;;;;;19.53;54.55;102836.97;5050330;28;20048;-79
2022/07/17 11:19:34;;;;;;;1.50;1.40;;;;;;;19.55;52.75;102829.78;5062375;28;20313;-79
2022/07/17 11:22:05;;;;;;;3.17;1.20;;;;;;;19.56;53.31;102831.50;5038462;28;20032;-79
2022/07/17 11:24:42;;;;;;;1.20;1.10;;;;;;;19.62;54.04;102839.19;5046785;28;20336;-79